Time;durP1;ratioP1;P1;durP2;ratioP2;P2;SDS_P1;SDS_P2;PMS_P1;PMS_P2;Temp;Humidity;BMP_temperature;BMP_pressure;BME280_temperature;BME280_humidity;BME280_pressure;Samples;Min_cycle;Max_cycle;Signal;HPM_P1;HPM_P2
2023/11/14 00:01:39;;;;;;;6.50;5.70;;;;;;;9.38;94.22;99085.60;104350;1257;74167;-60
2023/11/14 00:04:07;;;;;;;7.50;5.90;;;;;;;9.44;93.92;99084.77;106543;1251;68542;-60
2023/11/14 00:06:35;;;;;;;9.80;5.70;;;;;;;9.45;93.12;99092.63;108348;1251;73190;-60
2023/11/14 00:09:02;;;;;;;7.20;6.00;;;;;;;9.42;93.94;99088.71;104801;1257;60571;-59
2023/11/14 00:11:34;;;;;;;;;;;;;;;9.46;94.07;99087.86;104993;1251;60618;-60
2023/11/14 00:14:03;;;;;;;5.80;5.10;;;;;;;9.49;93.73;99087.35;104452;1273;72652;-59
2023/11/14 00:16:31;;;;;;;7.60;6.00;;;;;;;9.50;93.33;99083.29;105326;1252;68136;-59
2023/11/14 00:18:59;;;;;;;6.80;5.80;;;;;;;9.54;93.21;99078.71;105219;1257;72968;-60
2023/11/14 00:21:27;;;;;;;7.60;6.00;;;;;;;9.52;92.76;99077.61;104432;1253;61527;-59
2023/11/14 00:23:55;;;;;;;8.20;6.30;;;;;;;9.45;92.59;99083.15;104548;1261;60628;-60
2023/11/14 00:26:22;;;;;;;6.80;6.10;;;;;;;9.41;92.86;99085.63;104982;1264;74522;-59
2023/11/14 00:28:51;;;;;;;7.20;6.30;;;;;;;9.42;93.14;99086.64;104410;1257;69622;-59
2023/11/14 00:31:19;;;;;;;6.70;6.00;;;;;;;9.42;93.30;99084.36;104587;1258;72211;-60
2023/11/14 00:33:47;;;;;;;6.90;5.80;;;;;;;9.41;93.16;99081.45;104513;1259;63150;-59
2023/11/14 00:36:16;;;;;;;7.30;6.20;;;;;;;9.40;93.02;99076.39;104557;1257;61032;-59
2023/11/14 00:38:43;;;;;;;8.20;5.30;;;;;;;9.38;92.87;99072.83;108159;1251;73992;-60
2023/11/14 00:41:11;;;;;;;6.90;5.90;;;;;;;9.34;93.00;99087.16;107518;1254;69135;-59
2023/11/14 00:43:39;;;;;;;6.60;5.50;;;;;;;9.28;92.95;99090.23;104480;1257;72444;-59
2023/11/14 00:46:10;;;;;;;7.30;6.00;;;;;;;9.20;93.28;99086.08;105216;1257;60592;-59
2023/11/14 00:48:39;;;;;;;6.70;5.80;;;;;;;9.14;93.59;99082.84;106167;1258;60453;-59
2023/11/14 00:51:06;;;;;;;6.30;5.60;;;;;;;9.07;93.70;99077.43;104982;1259;73808;-60
2023/11/14 00:53:34;;;;;;;6.50;5.90;;;;;;;9.06;93.86;99075.35;105345;1259;69057;-60
2023/11/14 00:56:02;;;;;;;;;;;;;;;9.05;93.61;99070.84;104428;1260;73210;-60
2023/11/14 00:58:29;;;;;;;;;;;;;;;9.04;92.94;99074.20;104529;1258;60609;-59
2023/11/14 01:00:57;;;;;;;6.40;5.70;;;;;;;8.97;92.36;99072.08;104445;1258;60466;-60
2023/11/14 01:03:26;;;;;;;;;;;;;;;8.90;92.63;99067.83;104786;1257;72721;-59
2023/11/14 01:05:54;;;;;;;9.50;5.30;;;;;;;8.86;91.91;99065.23;107750;1253;69211;-60
2023/11/14 01:08:23;;;;;;;6.90;5.60;;;;;;;8.88;92.45;99059.02;107124;1256;72333;-60
2023/11/14 01:10:51;;;;;;;6.80;5.50;;;;;;;8.84;92.88;99056.92;104951;1254;60930;-59
2023/11/14 01:13:19;;;;;;;7.20;5.60;;;;;;;8.83;93.05;99052.77;104794;1258;60515;-59
2023/11/14 01:15:46;;;;;;;6.40;5.30;;;;;;;8.83;92.23;99048.74;104768;1260;74036;-60
2023/11/14 01:18:15;;;;;;;;;;;;;;;8.80;92.43;99050.27;104437;1266;69431;-59
2023/11/14 01:20:42;;;;;;;6.00;5.40;;;;;;;8.80;92.26;99044.38;104976;1259;72469;-59
2023/11/14 01:23:10;;;;;;;7.90;5.40;;;;;;;8.76;92.48;99038.77;104425;1260;60643;-60
2023/11/14 01:25:41;;;;;;;;;;;;;;;8.72;92.25;99039.30;104693;1259;60438;-60
2023/11/14 01:28:09;;;;;;;6.10;5.30;;;;;;;8.70;91.76;99038.48;104393;1264;74023;-60
2023/11/14 01:30:37;;;;;;;7.30;6.30;;;;;;;8.66;91.78;99035.39;104885;1258;69388;-60
2023/11/14 01:33:05;;;;;;;;;;;;;;;8.63;91.77;99032.73;104551;1260;72982;-61
2023/11/14 01:35:33;;;;;;;6.50;5.20;;;;;;;8.60;91.42;99024.99;104359;1259;60614;-60
2023/11/14 01:38:00;;;;;;;6.40;5.40;;;;;;;8.56;91.43;99021.13;104516;1260;60510;-60
2023/11/14 01:40:28;;;;;;;;;;;;;;;8.54;91.77;99017.04;104351;1272;72674;-59
2023/11/14 01:43:02;;;;;;;6.00;5.10;;;;;;;8.54;91.17;99015.11;104520;1273;69947;-60
2023/11/14 01:45:31;;;;;;;10.10;5.60;;;;;;;8.48;90.98;99014.68;104734;1259;73335;-60
2023/11/14 01:47:59;;;;;;;5.70;5.10;;;;;;;8.44;91.42;99015.39;104992;1253;60810;-60
2023/11/14 01:50:26;;;;;;;6.20;5.10;;;;;;;8.40;91.30;99014.85;104671;1258;60478;-63
2023/11/14 01:52:56;;;;;;;6.40;4.90;;;;;;;8.36;91.47;99016.37;104336;1276;73691;-59
2023/11/14 01:55:25;;;;;;;7.40;5.70;;;;;;;8.32;91.38;99020.40;104450;1259;70276;-60
2023/11/14 01:57:54;;;;;;;8.00;5.60;;;;;;;8.30;91.36;99015.77;104682;1275;72352;-60
2023/11/14 02:00:22;;;;;;;6.30;5.70;;;;;;;8.27;91.53;99010.84;104359;1256;60527;-59
2023/11/14 02:02:49;;;;;;;;;;;;;;;8.23;91.23;99007.88;104548;1260;60571;-60
2023/11/14 02:05:17;;;;;;;;;;;;;;;8.18;91.07;98999.89;106199;1254;72416;-60
2023/11/14 02:07:46;;;;;;;6.30;5.60;;;;;;;8.17;91.23;98991.90;106106;1254;69706;-61
2023/11/14 02:10:14;;;;;;;6.50;5.90;;;;;;;8.18;91.54;98990.48;108156;1254;73362;-60
2023/11/14 02:12:42;;;;;;;8.20;5.00;;;;;;;8.16;91.58;98993.17;108047;1258;59762;-60
2023/11/14 02:15:11;;;;;;;8.40;5.50;;;;;;;8.15;92.02;99005.05;107061;1264;60100;-60
2023/11/14 02:17:42;;;;;;;6.00;5.40;;;;;;;8.13;92.55;99000.61;104632;1258;73284;-60
2023/11/14 02:20:11;;;;;;;6.00;5.20;;;;;;;8.07;92.80;98999.51;104931;1259;69992;-59
2023/11/14 02:22:38;;;;;;;6.90;5.10;;;;;;;8.03;92.92;99001.40;104444;1260;72367;-59
2023/11/14 02:25:07;;;;;;;;;;;;;;;8.03;92.89;99000.39;104343;1259;60408;-60
2023/11/14 02:27:35;;;;;;;7.00;5.70;;;;;;;8.00;92.19;99000.98;104681;1254;60536;-60
2023/11/14 02:30:04;;;;;;;9.70;4.90;;;;;;;7.96;92.83;98999.79;104280;1260;73488;-60
2023/11/14 02:32:32;;;;;;;7.90;5.80;;;;;;;7.97;92.84;98999.56;104408;1259;69763;-60
2023/11/14 02:35:00;;;;;;;7.10;6.20;;;;;;;7.98;92.50;98998.29;104305;1261;72562;-59
2023/11/14 02:37:28;;;;;;;6.30;5.60;;;;;;;8.01;92.40;98989.26;104504;1256;60949;-58
2023/11/14 02:39:56;;;;;;;9.60;5.40;;;;;;;7.98;92.09;98991.99;104675;1260;59354;-60
2023/11/14 02:42:24;;;;;;;11.10;5.90;;;;;;;7.97;92.19;98992.73;107899;1253;73651;-59
2023/11/14 02:44:53;;;;;;;7.80;5.90;;;;;;;7.97;92.44;98989.59;106971;1259;69430;-60
2023/11/14 02:47:21;;;;;;;8.00;5.50;;;;;;;7.98;92.59;98989.41;104655;1254;72523;-59
2023/11/14 02:50:07;;;;;;;;;;;;;;;7.97;92.71;98984.00;104787;1259;60902;-59
2023/11/14 02:52:36;;;;;;;8.90;5.90;;;;;;;7.99;92.17;98968.76;105374;1254;60508;-59
2023/11/14 02:55:05;;;;;;;7.90;5.70;;;;;;;8.02;92.01;98960.61;105371;1254;74007;-59
2023/11/14 02:57:33;;;;;;;6.70;5.80;;;;;;;8.03;91.95;98955.02;104681;1259;69892;-59
2023/11/14 03:00:00;;;;;;;6.60;5.90;;;;;;;8.03;91.82;98960.89;104703;1259;73453;-58
2023/11/14 03:02:28;;;;;;;;;;;;;;;8.04;91.67;98959.82;104664;1259;60603;-59
2023/11/14 03:04:56;;;;;;;;;;;;;;;8.02;91.47;98964.27;105521;1252;60498;-59
2023/11/14 03:07:23;;;;;;;;;;;;;;;8.01;91.21;98966.93;107387;1257;73716;-59
2023/11/14 03:09:51;;;;;;;;;;;;;;;7.99;90.94;98963.52;106190;1257;69445;-60
2023/11/14 03:12:18;;;;;;;;;;;;;;;7.95;90.83;98967.17;104923;1257;72848;-59
2023/11/14 03:14:46;;;;;;;8.00;5.60;;;;;;;7.92;91.04;98972.73;105625;1254;60588;-59
2023/11/14 03:17:14;;;;;;;7.40;6.10;;;;;;;7.91;91.19;98973.83;105362;1254;61653;-59
2023/11/14 03:19:42;;;;;;;7.70;6.30;;;;;;;7.88;91.49;98974.80;104837;1260;73568;-59
2023/11/14 03:22:10;;;;;;;;;;;;;;;7.87;91.63;98977.31;104553;1259;69760;-59
2023/11/14 03:24:39;;;;;;;7.90;6.50;;;;;;;7.88;91.58;98980.92;104635;1254;72983;-62
2023/11/14 03:27:07;;;;;;;11.00;7.00;;;;;;;7.88;91.34;98983.55;104851;1256;60663;-61
2023/11/14 03:29:35;;;;;;;7.10;6.30;;;;;;;7.86;91.28;98983.27;104351;1258;60451;-59
2023/11/14 03:32:03;;;;;;;;;;;;;;;7.85;91.00;98975.48;104559;1252;73546;-59
2023/11/14 03:34:30;;;;;;;6.90;6.20;;;;;;;7.79;90.86;98970.29;104385;1256;69117;-59
2023/11/14 03:36:58;;;;;;;;;;;;;;;7.71;91.62;98969.59;104597;1257;73302;-59
2023/11/14 03:39:26;;;;;;;;;;;;;;;7.73;91.99;98980.51;104794;1256;60679;-59
2023/11/14 03:41:55;;;;;;;8.60;6.40;;;;;;;7.75;91.86;98976.40;108422;1253;60031;-60
2023/11/14 03:44:22;;;;;;;6.80;6.10;;;;;;;7.79;91.92;98976.91;108399;1254;73594;-61
2023/11/14 03:46:50;;;;;;;7.00;6.30;;;;;;;7.81;91.71;98969.88;108232;1253;69629;-60
2023/11/14 03:49:18;;;;;;;6.90;6.20;;;;;;;7.81;92.14;98958.70;108370;1253;72429;-63
2023/11/14 03:51:45;;;;;;;6.80;6.00;;;;;;;7.84;92.20;98949.88;108250;1257;60548;-60
2023/11/14 03:54:13;;;;;;;7.50;6.50;;;;;;;7.81;92.30;98936.55;108102;1252;60804;-60
2023/11/14 03:56:41;;;;;;;7.50;6.40;;;;;;;7.79;92.84;98924.04;108412;1252;74522;-60
2023/11/14 03:59:08;;;;;;;;;;;;;;;7.80;92.86;98913.73;108511;1252;69585;-60
2023/11/14 04:01:36;;;;;;;;;;;;;;;7.77;92.58;98912.99;108160;1257;72376;-59
2023/11/14 04:04:03;;;;;;;;;;;;;;;7.71;93.10;98912.04;108249;1251;61264;-59
2023/11/14 04:06:32;;;;;;;7.10;5.80;;;;;;;7.65;93.26;98912.48;108386;1251;59998;-60
2023/11/14 04:09:00;;;;;;;7.50;6.20;;;;;;;7.60;94.27;98917.35;108325;1251;74158;-60
2023/11/14 04:11:27;;;;;;;9.30;5.80;;;;;;;7.57;94.75;98920.80;108262;1257;68159;-60
2023/11/14 04:13:55;;;;;;;6.40;5.80;;;;;;;7.60;95.23;98910.90;108308;1251;72006;-60
2023/11/14 04:16:23;;;;;;;6.30;5.70;;;;;;;7.66;95.00;98904.05;108402;1251;62187;-59
2023/11/14 04:19:48;;;;;;;7.90;6.30;;;;;;;7.12;99.77;98904.31;101349;1305;601643;-60
2023/11/14 04:22:17;;;;;;;;;;;;;;;7.59;97.29;98895.80;103624;1267;60953;-60
2023/11/14 04:24:45;;;;;;;7.10;6.10;;;;;;;7.63;95.92;98895.11;103776;1272;59870;-60
2023/11/14 04:27:12;;;;;;;;;;;;;;;7.68;95.33;98893.50;103800;1266;72457;-59
2023/11/14 04:29:41;;;;;;;6.10;5.50;;;;;;;7.72;94.47;98893.67;103456;1273;70476;-59
2023/11/14 04:32:08;;;;;;;8.20;6.80;;;;;;;7.75;93.76;98886.54;103844;1267;73423;-59
2023/11/14 04:34:36;;;;;;;;;;;;;;;7.74;92.75;98888.16;103725;1268;195353;-60
2023/11/14 04:37:04;;;;;;;;;;;;;;;7.68;92.84;98885.30;104082;1266;59815;-60
2023/11/14 04:39:32;;;;;;;7.10;6.10;;;;;;;7.64;92.44;98880.40;103903;1270;72335;-60
2023/11/14 04:42:00;;;;;;;7.30;6.10;;;;;;;7.57;92.34;98878.92;103809;1283;69083;-60
2023/11/14 04:44:29;;;;;;;7.60;6.20;;;;;;;7.51;92.31;98875.90;104449;1263;73369;-60
2023/11/14 04:46:57;;;;;;;7.90;5.80;;;;;;;7.44;92.59;98871.84;106953;1264;60601;-61
2023/11/14 04:49:25;;;;;;;7.30;5.60;;;;;;;7.36;92.82;98880.16;103913;1264;59908;-59
2023/11/14 04:51:53;;;;;;;;;;;;;;;7.27;93.66;98887.73;104498;1269;72913;-61
2023/11/14 04:54:21;;;;;;;;;;;;;;;7.22;94.33;98891.23;104219;1263;69048;-60
2023/11/14 04:56:48;;;;;;;10.20;5.70;;;;;;;7.18;94.55;98894.34;104153;1280;73445;-61
2023/11/14 04:59:16;;;;;;;7.40;6.00;;;;;;;7.15;94.66;98890.27;104185;1264;60658;-61
2023/11/14 05:01:44;;;;;;;7.10;6.30;;;;;;;7.13;95.15;98889.33;103930;1265;59823;-60
2023/11/14 05:04:11;;;;;;;7.20;6.50;;;;;;;7.15;95.44;98885.06;104220;1263;73829;-60
2023/11/14 05:06:39;;;;;;;6.90;6.30;;;;;;;7.13;95.44;98886.88;104067;1262;69131;-60
2023/11/14 05:09:09;;;;;;;9.30;6.60;;;;;;;7.11;95.86;98884.54;105728;1264;72892;-62
2023/11/14 05:11:37;;;;;;;8.00;6.10;;;;;;;7.07;96.70;98879.27;105453;1266;60026;-60
2023/11/14 05:14:06;;;;;;;8.00;6.30;;;;;;;7.05;97.08;98882.33;104865;1264;59774;-61
2023/11/14 05:16:40;;;;;;;6.10;5.50;;;;;;;7.02;97.85;98875.64;104820;1263;73714;-59
2023/11/14 05:19:09;;;;;;;7.10;5.90;;;;;;;7.02;97.99;98875.48;104983;1257;69206;-58
2023/11/14 05:21:37;;;;;;;9.70;6.30;;;;;;;7.02;97.88;98879.30;104288;1264;73125;-59
2023/11/14 05:24:09;;;;;;;6.50;5.70;;;;;;;6.99;98.00;98873.52;104760;1261;60834;-58
2023/11/14 05:26:37;;;;;;;6.70;6.00;;;;;;;6.94;98.90;98863.98;104847;1262;59943;-58
2023/11/14 05:29:06;;;;;;;6.80;6.10;;;;;;;6.98;99.12;98859.59;104260;1257;71946;-58
2023/11/14 05:31:35;;;;;;;7.80;6.40;;;;;;;7.00;98.96;98862.81;104105;1269;70026;-63
2023/11/14 05:34:04;;;;;;;8.80;5.90;;;;;;;6.99;99.32;98860.10;104451;1257;72489;-60
2023/11/14 05:36:32;;;;;;;6.90;5.80;;;;;;;6.98;99.42;98854.52;104200;1258;60994;-58
2023/11/14 05:38:59;;;;;;;7.70;6.10;;;;;;;6.96;99.83;98852.86;104390;1260;59842;-58
2023/11/14 05:41:27;;;;;;;5.70;5.20;;;;;;;6.95;99.93;98859.73;104213;1277;72817;-58
2023/11/14 05:43:55;;;;;;;6.50;5.90;;;;;;;6.95;100.00;98861.81;104064;1269;68485;-58
2023/11/14 05:46:22;;;;;;;7.20;5.70;;;;;;;7.01;100.00;98856.52;104005;1276;73338;-58
2023/11/14 05:48:51;;;;;;;6.80;6.10;;;;;;;7.03;100.00;98856.62;104362;1262;60813;-58
2023/11/14 05:51:18;;;;;;;7.00;5.50;;;;;;;7.06;100.00;98852.31;104420;1257;59760;-58
2023/11/14 05:53:46;;;;;;;5.70;5.20;;;;;;;7.06;100.00;98849.52;104062;1261;72950;-59
2023/11/14 05:56:14;;;;;;;7.40;5.50;;;;;;;7.08;100.00;98853.11;103946;1264;69100;-59
2023/11/14 05:58:42;;;;;;;8.60;5.20;;;;;;;7.12;100.00;98849.61;104717;1262;72897;-58
2023/11/14 06:01:10;;;;;;;7.90;5.30;;;;;;;7.16;100.00;98847.72;104311;1261;60623;-59
2023/11/14 06:03:38;;;;;;;5.90;5.30;;;;;;;7.20;100.00;98841.80;104066;1260;60677;-58
2023/11/14 06:06:06;;;;;;;6.20;5.60;;;;;;;7.22;100.00;98835.44;104173;1273;73007;-58
2023/11/14 06:08:33;;;;;;;;;;;;;;;7.25;100.00;98830.79;106597;1256;69024;-58
2023/11/14 06:11:01;;;;;;;5.40;4.80;;;;;;;7.31;100.00;98831.41;106984;1259;72907;-59
2023/11/14 06:13:29;;;;;;;;;;;;;;;7.38;100.00;98825.36;104088;1274;60643;-59
2023/11/14 06:15:56;;;;;;;5.50;4.90;;;;;;;7.44;100.00;98830.84;104066;1263;59625;-60
2023/11/14 06:18:25;;;;;;;;;;;;;;;7.48;100.00;98830.86;104560;1261;72783;-58
2023/11/14 06:20:52;;;;;;;5.30;4.30;;;;;;;7.51;100.00;98833.01;104515;1259;69169;-59
2023/11/14 06:23:20;;;;;;;5.60;4.60;;;;;;;7.54;100.00;98829.56;104026;1260;72371;-59
2023/11/14 06:25:48;;;;;;;5.40;4.60;;;;;;;7.60;100.00;98825.61;104103;1260;60568;-60
2023/11/14 06:28:16;;;;;;;4.90;4.40;;;;;;;7.64;100.00;98826.66;104190;1260;60042;-60
2023/11/14 06:30:44;;;;;;;6.10;4.70;;;;;;;7.72;100.00;98822.33;104014;1270;73779;-60
2023/11/14 06:33:13;;;;;;;9.50;8.20;;;;;;;7.78;100.00;98817.33;104144;1273;69423;-60
2023/11/14 06:35:41;;;;;;;8.30;6.90;;;;;;;7.83;100.00;98813.64;104229;1260;72348;-60
2023/11/14 06:38:08;;;;;;;8.80;7.30;;;;;;;7.86;100.00;98808.08;104430;1263;60650;-59
2023/11/14 06:40:36;;;;;;;;;;;;;;;7.91;100.00;98806.83;104155;1259;59592;-58
2023/11/14 06:43:04;;;;;;;21.20;14.00;;;;;;;7.95;100.00;98802.28;104723;1257;72623;-59
2023/11/14 06:45:32;;;;;;;27.00;16.90;;;;;;;8.02;99.61;98795.50;104491;1260;68190;-59
2023/11/14 06:48:00;;;;;;;24.90;16.30;;;;;;;8.09;98.85;98792.23;105714;1256;71524;-60
2023/11/14 06:50:28;;;;;;;;;;;;;;;8.16;98.34;98792.58;107583;1259;60797;-60
2023/11/14 06:53:10;;;;;;;26.20;16.50;;;;;;;8.19;97.66;98792.29;105518;1257;59631;-61
2023/11/14 16:35:36;;;;;;;5.80;4.20;;;;;;;10.97;100.00;98214.27;101481;1293;601110;-58
2023/11/14 16:38:04;;;;;;;5.80;4.80;;;;;;;11.50;100.00;98206.64;103985;1267;59934;-58
2023/11/14 16:40:32;;;;;;;6.60;4.30;;;;;;;11.54;100.00;98205.87;103934;1267;60393;-57
2023/11/14 16:42:59;;;;;;;4.70;4.10;;;;;;;11.54;100.00;98210.42;104334;1266;72033;-58
2023/11/14 16:45:27;;;;;;;4.70;3.50;;;;;;;11.55;100.00;98213.86;103983;1265;69493;-58
2023/11/14 16:47:55;;;;;;;3.70;3.40;;;;;;;11.53;100.00;98215.20;104294;1267;73786;-58
2023/11/14 16:50:23;;;;;;;5.10;3.50;;;;;;;11.54;100.00;98210.09;104814;1257;345359;-58
2023/11/14 16:52:51;;;;;;;5.30;3.80;;;;;;;11.56;100.00;98205.86;105020;1256;59839;-58
2023/11/14 16:55:19;;;;;;;;;;;;;;;11.58;100.00;98211.04;104738;1266;72056;-58
2023/11/14 16:57:47;;;;;;;4.40;4.10;;;;;;;11.58;100.00;98210.84;105676;1254;69207;-59
2023/11/14 17:00:16;;;;;;;;;;;;;;;11.62;100.00;98202.34;105962;1254;73073;-59
2023/11/14 17:02:43;;;;;;;5.70;5.20;;;;;;;11.56;100.00;98198.73;104762;1254;61027;-57
2023/11/14 17:05:11;;;;;;;;;;;;;;;11.56;100.00;98194.00;107537;1252;60332;-58
2023/11/14 17:07:39;;;;;;;6.00;4.70;;;;;;;11.58;100.00;98196.48;108198;1254;73562;-60
2023/11/14 17:10:07;;;;;;;5.60;5.10;;;;;;;11.63;100.00;98201.21;104961;1256;72474;-59
2023/11/14 17:12:35;;;;;;;5.20;4.20;;;;;;;11.67;100.00;98206.75;105506;1256;72814;-60
2023/11/14 17:15:05;;;;;;;6.00;4.80;;;;;;;11.74;100.00;98208.41;104807;1259;60137;-60
2023/11/14 17:17:32;;;;;;;8.90;4.80;;;;;;;11.76;100.00;98206.64;104981;1254;60067;-61
2023/11/14 17:20:00;;;;;;;;;;;;;;;11.72;100.00;98202.84;105331;1253;73095;-60
2023/11/14 17:22:28;;;;;;;6.00;5.30;;;;;;;11.69;100.00;98202.02;104824;1256;69462;-61
2023/11/14 17:24:56;;;;;;;6.50;5.10;;;;;;;11.66;100.00;98196.09;104316;1269;72792;-60
2023/11/14 17:27:26;;;;;;;;;;;;;;;11.66;100.00;98199.48;104670;1259;61468;-60
2023/11/14 17:29:55;;;;;;;7.60;5.50;;;;;;;11.63;100.00;98204.40;104779;1256;59777;-61
2023/11/14 17:32:22;;;;;;;6.00;5.10;;;;;;;11.67;100.00;98204.44;105302;1253;73817;-61
2023/11/14 17:34:50;;;;;;;5.90;5.30;;;;;;;11.71;100.00;98203.86;104389;1256;68619;-60
2023/11/14 17:37:20;;;;;;;6.50;5.30;;;;;;;11.66;100.00;98204.85;104436;1256;73593;-60
2023/11/14 17:39:48;;;;;;;;;;;;;;;11.60;100.00;98197.36;104391;1257;61676;-60
2023/11/14 17:42:17;;;;;;;7.30;6.10;;;;;;;11.65;100.00;98205.61;104556;1254;61832;-60
2023/11/14 17:44:46;;;;;;;7.30;5.90;;;;;;;11.65;100.00;98201.79;104617;1259;72484;-57
2023/11/14 17:47:15;;;;;;;;;;;;;;;11.67;100.00;98207.21;104500;1260;71468;-59
2023/11/14 17:49:43;;;;;;;7.80;5.90;;;;;;;11.67;100.00;98204.41;104895;1257;73005;-59
2023/11/14 17:52:11;;;;;;;6.70;5.50;;;;;;;11.72;100.00;98205.49;105166;1256;60881;-60
2023/11/14 17:54:42;;;;;;;;;;;;;;;11.74;100.00;98206.95;104612;1257;60051;-60
2023/11/14 17:57:10;;;;;;;6.60;5.60;;;;;;;11.72;100.00;98204.48;104477;1257;73186;-60
2023/11/14 17:59:39;;;;;;;8.90;6.70;;;;;;;11.69;100.00;98203.27;104548;1258;68215;-60
2023/11/14 18:02:06;;;;;;;8.10;7.10;;;;;;;11.67;100.00;98204.64;104665;1254;73204;-60
2023/11/14 18:04:35;;;;;;;6.40;5.50;;;;;;;11.68;100.00;98204.88;104858;1254;60869;-61
2023/11/14 18:07:04;;;;;;;7.90;6.70;;;;;;;11.74;100.00;98210.98;104704;1257;60033;-60
2023/11/14 18:09:32;;;;;;;8.10;5.50;;;;;;;11.72;100.00;98212.67;105974;1256;73532;-57
2023/11/14 18:12:02;;;;;;;6.00;4.90;;;;;;;11.66;100.00;98215.89;104764;1261;70626;-59
2023/11/14 18:14:30;;;;;;;6.20;5.30;;;;;;;11.68;100.00;98214.20;104748;1256;72729;-58
2023/11/14 18:17:01;;;;;;;;;;;;;;;11.71;100.00;98215.40;106783;1255;59906;-58
2023/11/14 18:19:29;;;;;;;7.40;5.50;;;;;;;11.75;100.00;98219.90;106180;1254;59745;-58
2023/11/14 18:21:58;;;;;;;6.20;5.30;;;;;;;11.75;100.00;98219.49;104554;1258;72921;-59
2023/11/14 18:24:25;;;;;;;7.40;5.90;;;;;;;11.77;100.00;98220.27;105161;1254;69363;-58
2023/11/14 18:26:53;;;;;;;8.60;6.30;;;;;;;11.80;100.00;98217.55;105496;1257;72567;-58
2023/11/14 18:29:21;;;;;;;9.30;6.30;;;;;;;11.83;100.00;98217.37;104671;1273;60636;-59
2023/11/14 18:31:49;;;;;;;7.40;5.50;;;;;;;11.83;100.00;98215.07;104980;1260;59630;-58
2023/11/14 18:34:17;;;;;;;8.10;5.90;;;;;;;11.81;100.00;98215.61;104601;1252;73923;-58
2023/11/14 18:36:45;;;;;;;;;;;;;;;11.81;100.00;98212.94;104740;1253;69504;-59
2023/11/14 18:39:14;;;;;;;;;;;;;;;11.84;100.00;98213.08;104736;1257;73410;-59
2023/11/14 18:41:52;;;;;;;7.60;5.80;;;;;;;11.84;100.00;98211.84;104800;1254;60940;-60
2023/11/14 18:44:29;;;;;;;8.30;5.30;;;;;;;11.83;100.00;98208.42;104312;1261;59752;-60
2023/11/14 18:46:57;;;;;;;5.40;4.90;;;;;;;11.80;100.00;98202.48;105356;1253;73208;-60
2023/11/14 18:49:25;;;;;;;7.90;4.70;;;;;;;11.82;100.00;98200.59;104934;1254;69674;-60
2023/11/14 18:51:53;;;;;;;6.90;4.70;;;;;;;11.84;100.00;98204.33;105993;1254;71862;-59
2023/11/14 18:54:23;;;;;;;6.40;4.50;;;;;;;11.85;100.00;98203.20;105776;1253;60840;-59
2023/11/14 18:56:51;;;;;;;7.00;4.80;;;;;;;11.80;100.00;98198.99;105107;1255;59625;-59
2023/11/14 18:59:19;;;;;;;;;;;;;;;11.76;100.00;98199.98;104593;1257;72851;-59
2023/11/14 19:01:46;;;;;;;;;;;;;;;11.77;100.00;98203.23;104758;1257;70197;-59
2023/11/14 19:04:19;;;;;;;9.20;5.80;;;;;;;11.81;100.00;98208.20;104855;1256;72482;-59
2023/11/14 19:06:47;;;;;;;7.00;4.80;;;;;;;11.82;100.00;98212.54;105241;1257;59918;-62
2023/11/14 19:09:16;;;;;;;7.70;6.30;;;;;;;11.80;100.00;98216.84;108315;1254;60107;-62
2023/11/14 19:11:44;;;;;;;8.10;5.40;;;;;;;11.80;100.00;98218.27;107988;1256;73504;-62
2023/11/14 19:14:11;;;;;;;9.50;5.70;;;;;;;11.83;100.00;98219.84;104626;1257;70183;-61
2023/11/14 19:16:39;;;;;;;16.70;10.10;;;;;;;11.83;100.00;98221.41;104433;1256;72713;-62
2023/11/14 19:19:10;;;;;;;15.20;9.20;;;;;;;11.82;100.00;98216.58;104811;1259;60988;-61
2023/11/14 19:21:38;;;;;;;13.10;8.00;;;;;;;11.82;100.00;98215.70;104613;1257;60003;-62
2023/11/14 19:24:12;;;;;;;10.00;6.20;;;;;;;11.79;100.00;98213.30;104644;1257;72933;-62
2023/11/14 19:26:44;;;;;;;7.90;5.80;;;;;;;11.78;100.00;98215.30;104315;1260;70063;-61
2023/11/14 19:29:15;;;;;;;9.80;5.50;;;;;;;11.77;100.00;98218.86;104669;1255;72782;-61
2023/11/14 19:31:45;;;;;;;5.90;4.60;;;;;;;11.78;100.00;98218.26;104919;1256;61186;-61
2023/11/14 19:34:15;;;;;;;8.10;4.90;;;;;;;11.76;100.00;98216.97;104729;1258;59667;-61
2023/11/14 19:36:50;;;;;;;9.20;5.10;;;;;;;11.75;100.00;98215.52;104649;1254;73710;-61
2023/11/14 19:39:18;;;;;;;8.60;5.20;;;;;;;11.71;100.00;98210.52;104382;1261;70239;-60
2023/11/14 19:41:46;;;;;;;8.10;5.30;;;;;;;11.68;100.00;98210.33;104845;1253;73137;-60
2023/11/14 19:44:14;;;;;;;;;;;;;;;11.64;100.00;98212.88;104488;1265;61738;-61
2023/11/14 19:46:42;;;;;;;9.50;5.10;;;;;;;11.60;100.00;98214.07;104486;1257;60111;-61
2023/11/14 19:49:10;;;;;;;6.60;4.60;;;;;;;11.56;100.00;98213.42;104957;1252;71863;-58
2023/11/14 19:51:38;;;;;;;6.50;4.30;;;;;;;11.55;100.00;98214.91;105724;1255;69562;-58
2023/11/14 19:54:08;;;;;;;8.60;4.60;;;;;;;11.53;100.00;98213.48;105108;1256;71699;-59
2023/11/14 19:56:35;;;;;;;6.10;4.80;;;;;;;11.49;100.00;98213.59;105048;1259;61802;-59
2023/11/14 19:59:03;;;;;;;7.90;4.80;;;;;;;11.47;100.00;98208.11;104656;1256;59780;-58
2023/11/14 20:01:32;;;;;;;6.20;4.90;;;;;;;11.41;100.00;98214.11;105107;1254;72801;-58
2023/11/14 20:04:00;;;;;;;6.60;4.80;;;;;;;11.41;100.00;98209.06;105302;1257;68874;-59
2023/11/14 20:06:28;;;;;;;7.30;4.40;;;;;;;11.40;100.00;98212.29;105086;1255;72444;-59
2023/11/14 20:08:58;;;;;;;8.00;5.00;;;;;;;11.31;100.00;98212.54;105051;1254;60596;-60
2023/11/14 20:11:26;;;;;;;6.10;4.50;;;;;;;11.34;100.00;98206.05;104753;1256;59930;-58
2023/11/14 20:13:54;;;;;;;9.00;4.10;;;;;;;11.39;100.00;98212.17;104683;1253;73566;-61
2023/11/14 20:16:22;;;;;;;6.10;4.70;;;;;;;11.35;100.00;98212.48;105060;1254;68585;-60
2023/11/14 20:18:50;;;;;;;7.70;4.30;;;;;;;11.35;100.00;98208.06;108309;1251;72440;-60
2023/11/14 20:21:18;;;;;;;6.30;4.00;;;;;;;11.34;100.00;98209.89;106389;1255;63604;-58
2023/11/14 20:23:56;;;;;;;6.10;4.00;;;;;;;11.36;100.00;98206.29;105617;1256;59994;-59
2023/11/14 20:26:24;;;;;;;;;;;;;;;11.39;100.00;98202.16;104805;1254;72844;-59
2023/11/14 20:28:51;;;;;;;;;;;;;;;11.42;100.00;98196.54;106172;1256;70608;-58
2023/11/14 20:31:19;;;;;;;8.80;4.40;;;;;;;11.43;100.00;98199.46;105806;1254;71500;-58
2023/11/14 20:33:47;;;;;;;;;;;;;;;11.37;100.00;98205.67;105602;1256;61582;-58
2023/11/14 20:36:15;;;;;;;7.40;4.10;;;;;;;11.37;100.00;98206.89;104889;1252;59740;-59
2023/11/14 20:38:44;;;;;;;5.80;4.00;;;;;;;11.39;100.00;98207.30;105021;1256;73123;-59
2023/11/14 20:41:14;;;;;;;7.50;4.10;;;;;;;11.35;100.00;98204.88;104838;1254;68743;-60
2023/11/14 20:43:41;;;;;;;6.70;4.60;;;;;;;11.34;100.00;98201.65;104657;1254;72724;-61
2023/11/14 20:46:09;;;;;;;7.80;5.20;;;;;;;11.30;100.00;98197.71;104476;1256;61052;-61
2023/11/14 20:48:37;;;;;;;6.30;4.40;;;;;;;11.33;100.00;98196.64;104675;1256;60883;-60
2023/11/14 20:51:05;;;;;;;;;;;;;;;11.33;100.00;98195.91;104690;1253;74402;-61
2023/11/14 20:53:51;;;;;;;7.50;3.70;;;;;;;11.35;100.00;98194.18;104880;1257;69329;-60
2023/11/14 20:56:23;;;;;;;7.00;4.10;;;;;;;11.37;100.00;98191.47;104653;1256;72469;-61
2023/11/14 20:58:52;;;;;;;5.80;3.90;;;;;;;11.39;100.00;98188.52;104629;1257;60682;-59
2023/11/14 21:01:20;;;;;;;9.30;4.10;;;;;;;11.35;100.00;98191.04;104713;1258;60555;-59
2023/11/14 21:03:48;;;;;;;6.80;3.90;;;;;;;11.32;100.00;98186.89;104641;1251;73595;-60
2023/11/14 21:06:16;;;;;;;8.00;4.00;;;;;;;11.30;100.00;98190.84;104489;1259;69736;-60
2023/11/14 21:08:44;;;;;;;8.20;4.20;;;;;;;11.30;100.00;98192.98;104415;1275;72414;-61
2023/11/14 21:11:12;;;;;;;6.40;3.50;;;;;;;11.34;100.00;98189.57;104398;1258;61858;-61
2023/11/14 21:13:40;;;;;;;5.70;3.80;;;;;;;11.30;100.00;98187.89;105535;1256;60495;-62
2023/11/14 21:16:11;;;;;;;8.40;3.80;;;;;;;11.29;100.00;98185.48;104416;1257;73619;-62
2023/11/14 21:18:40;;;;;;;5.50;3.60;;;;;;;11.24;100.00;98182.13;104481;1261;69038;-62
2023/11/14 21:21:09;;;;;;;6.90;3.70;;;;;;;11.20;100.00;98179.80;104457;1275;72496;-62
2023/11/14 21:23:37;;;;;;;5.40;3.80;;;;;;;11.20;100.00;98180.15;104586;1257;60665;-60
